Time;durP1;ratioP1;P1;durP2;ratioP2;P2;SDS_P1;SDS_P2;PMS_P1;PMS_P2;Temp;Humidity;BMP_temperature;BMP_pressure;BME280_temperature;BME280_humidity;BME280_pressure;Samples;Min_cycle;Max_cycle;Signal;HPM_P1;HPM_P2
2023/12/05 00:00:26;;;;;;;15.65;7.07;;;1.10;99.90;;;;;;5033112;28;20084;-76
2023/12/05 00:02:52;;;;;;;13.90;6.60;;;1.10;99.90;;;;;;5033367;28;20390;-76
2023/12/05 00:05:17;;;;;;;15.57;6.33;;;1.10;99.90;;;;;;5033990;28;20051;-76
2023/12/05 00:07:43;;;;;;;13.87;7.13;;;1.10;99.90;;;;;;5034822;28;20237;-76
2023/12/05 00:10:09;;;;;;;15.10;6.93;;;1.10;99.90;;;;;;5033075;28;20200;-77
2023/12/05 00:12:35;;;;;;;15.15;7.35;;;1.10;99.90;;;;;;5018863;28;20041;-77
2023/12/05 00:15:01;;;;;;;13.65;6.78;;;1.10;99.90;;;;;;5029086;28;20056;-77
2023/12/05 00:17:26;;;;;;;12.43;6.77;;;1.10;99.90;;;;;;5025395;28;20072;-77
2023/12/05 00:19:52;;;;;;;12.00;6.60;;;1.10;99.90;;;;;;5031513;28;20489;-77
2023/12/05 00:22:18;;;;;;;12.47;6.07;;;1.10;99.90;;;;;;5036572;28;20053;-77
2023/12/05 00:24:46;;;;;;;12.00;6.53;;;1.10;99.90;;;;;;5021538;28;20335;-76
2023/12/05 00:27:12;;;;;;;13.98;6.88;;;1.20;99.90;;;;;;5034717;28;20044;-77
2023/12/05 00:29:41;;;;;;;11.70;6.23;;;1.10;99.90;;;;;;5030142;28;20490;-76
2023/12/05 00:32:06;;;;;;;14.38;7.20;;;1.10;99.90;;;;;;5037234;28;20094;-76
2023/12/05 00:34:32;;;;;;;15.10;7.27;;;1.10;99.90;;;;;;5034114;28;20053;-76
2023/12/05 00:37:00;;;;;;;12.00;6.33;;;1.10;99.90;;;;;;5032727;28;20525;-76
2023/12/05 00:39:28;;;;;;;15.40;7.22;;;1.10;99.90;;;;;;5034808;28;20095;-77
2023/12/05 00:41:56;;;;;;;13.73;7.22;;;1.10;99.90;;;;;;5030376;28;20081;-76
2023/12/05 00:44:22;;;;;;;13.48;6.95;;;1.10;99.90;;;;;;5015804;28;20056;-77
2023/12/05 00:46:47;;;;;;;13.50;6.80;;;1.20;99.90;;;;;;5031839;28;20037;-76
2023/12/05 00:49:13;;;;;;;13.40;6.83;;;1.10;99.90;;;;;;5033520;28;20045;-76
2023/12/05 00:51:38;;;;;;;14.53;6.73;;;1.20;99.90;;;;;;5033012;28;20060;-76
2023/12/05 00:54:04;;;;;;;15.87;7.30;;;1.20;99.90;;;;;;5028514;28;20081;-76
2023/12/05 00:56:30;;;;;;;16.40;7.93;;;1.20;99.90;;;;;;5030343;28;20049;-76
2023/12/05 00:59:01;;;;;;;14.82;7.20;;;1.10;99.90;;;;;;5027143;28;20259;-76
2023/12/05 01:01:27;;;;;;;15.07;7.77;;;1.20;99.90;;;;;;5030003;28;20272;-76
2023/12/05 01:03:54;;;;;;;14.00;7.83;;;1.20;99.90;;;;;;5017203;28;20394;-77
2023/12/05 01:06:20;;;;;;;15.32;7.93;;;1.20;99.90;;;;;;5038273;28;20087;-77
2023/12/05 01:08:45;;;;;;;16.33;7.73;;;1.20;99.90;;;;;;5037090;28;20084;-76
2023/12/05 01:11:11;;;;;;;14.27;7.53;;;1.20;99.90;;;;;;5028545;28;20064;-77
2023/12/05 01:13:37;;;;;;;16.30;8.03;;;1.20;99.90;;;;;;5034472;28;20096;-76
2023/12/05 01:16:03;;;;;;;13.07;7.38;;;1.20;99.90;;;;;;5039790;28;20089;-76
2023/12/05 01:18:29;;;;;;;14.85;7.65;;;1.20;99.90;;;;;;5040947;28;20135;-77
2023/12/05 01:20:55;;;;;;;14.70;8.23;;;1.20;99.90;;;;;;5036350;28;20197;-76
2023/12/05 01:23:20;;;;;;;14.20;7.60;;;1.20;99.90;;;;;;5033902;28;20102;-76
2023/12/05 01:25:49;;;;;;;14.23;8.03;;;1.20;99.90;;;;;;5037398;28;20053;-76
2023/12/05 01:28:15;;;;;;;14.82;8.20;;;1.20;99.90;;;;;;5039777;28;20049;-76
2023/12/05 01:30:41;;;;;;;15.97;8.93;;;1.20;99.90;;;;;;5034015;28;20044;-76
2023/12/05 01:33:07;;;;;;;;;;;1.10;99.90;;;;;;5031059;28;20036;-77
2023/12/05 01:35:32;;;;;;;15.27;8.93;;;1.20;99.90;;;;;;5033617;28;19920;-76
2023/12/05 01:37:58;;;;;;;16.43;8.27;;;1.10;99.90;;;;;;5015507;28;20131;-76
2023/12/05 01:40:24;;;;;;;17.10;8.83;;;1.10;99.90;;;;;;5041107;28;20130;-77
2023/12/05 01:42:49;;;;;;;22.67;8.93;;;1.20;99.90;;;;;;5033889;28;20098;-76
2023/12/05 01:45:15;;;;;;;18.00;9.77;;;1.20;99.90;;;;;;5037479;28;20176;-76
2023/12/05 01:47:41;;;;;;;18.03;8.80;;;1.10;99.90;;;;;;5035961;28;20057;-77
2023/12/05 01:50:14;;;;;;;19.67;9.52;;;1.20;99.90;;;;;;5032363;28;20067;-77
2023/12/05 01:52:44;;;;;;;21.52;9.38;;;1.10;99.90;;;;;;5032264;28;20049;-77
2023/12/05 01:55:13;;;;;;;18.13;9.52;;;1.10;99.90;;;;;;5020847;28;20113;-76
2023/12/05 01:57:39;;;;;;;20.42;9.20;;;1.10;99.90;;;;;;5041169;28;20094;-77
2023/12/05 02:00:06;;;;;;;17.80;9.27;;;1.10;99.90;;;;;;5033381;28;20041;-76
2023/12/05 02:02:35;;;;;;;19.48;9.35;;;1.10;99.90;;;;;;5031764;28;20044;-76
2023/12/05 02:05:03;;;;;;;15.60;8.55;;;1.10;99.90;;;;;;5023474;28;20044;-76
2023/12/05 02:07:32;;;;;;;23.05;10.20;;;1.10;99.90;;;;;;5036213;28;20532;-76
2023/12/05 02:10:06;;;;;;;18.77;9.63;;;1.10;99.90;;;;;;5041655;28;20041;-78
2023/12/05 02:12:32;;;;;;;16.52;9.10;;;1.10;99.90;;;;;;5034410;28;20052;-76
2023/12/05 02:14:58;;;;;;;17.02;9.07;;;1.00;99.90;;;;;;5035077;28;20076;-76
2023/12/05 02:17:26;;;;;;;18.43;9.43;;;1.00;99.90;;;;;;5041903;28;20041;-76
2023/12/05 02:20:29;;;;;;;20.40;9.73;;;1.00;99.90;;;;;;5037325;28;20064;-76
2023/12/05 02:23:13;;;;;;;16.27;8.07;;;1.00;99.90;;;;;;5029588;28;20486;-76
2023/12/05 02:25:56;;;;;;;20.38;9.18;;;1.00;99.90;;;;;;5030770;28;20046;-76
2023/12/05 02:28:24;;;;;;;16.05;9.15;;;1.00;99.90;;;;;;5042903;28;20049;-76
2023/12/05 02:30:49;;;;;;;18.65;9.15;;;1.00;99.90;;;;;;5038244;28;20661;-76
2023/12/05 02:33:15;;;;;;;16.20;9.02;;;0.90;99.90;;;;;;5021481;28;20040;-76
2023/12/05 02:35:45;;;;;;;17.25;9.15;;;0.90;99.90;;;;;;5031901;28;20053;-76
2023/12/05 02:38:29;;;;;;;14.98;8.45;;;1.00;99.90;;;;;;5038530;28;20081;-76
2023/12/05 02:41:20;;;;;;;17.65;8.40;;;0.90;99.90;;;;;;5021046;28;20675;-76
2023/12/05 02:43:56;;;;;;;20.88;9.27;;;1.00;99.90;;;;;;5035320;28;20056;-76
2023/12/05 02:46:21;;;;;;;17.55;8.63;;;0.90;99.90;;;;;;5035302;28;20106;-76
2023/12/05 02:48:49;;;;;;;15.90;8.73;;;1.00;99.90;;;;;;5033410;28;20449;-76
2023/12/05 02:51:15;;;;;;;17.80;9.40;;;0.90;99.90;;;;;;5042127;28;20099;-77
2023/12/05 02:53:41;;;;;;;15.93;8.43;;;0.90;99.90;;;;;;5040766;28;20120;-84
2023/12/05 02:56:08;;;;;;;16.03;9.37;;;0.90;99.90;;;;;;5025827;28;20135;-76
2023/12/05 02:58:34;;;;;;;16.90;9.18;;;0.90;99.90;;;;;;5035160;28;20086;-76
2023/12/05 03:01:00;;;;;;;18.30;9.43;;;0.90;99.90;;;;;;5039911;28;20451;-76
2023/12/05 03:03:26;;;;;;;17.88;9.40;;;0.90;99.90;;;;;;5041011;28;20069;-77
2023/12/05 03:05:51;;;;;;;16.57;9.07;;;0.90;99.90;;;;;;5039478;28;20079;-76
2023/12/05 03:08:17;;;;;;;18.67;9.80;;;0.90;99.90;;;;;;5046236;28;20036;-76
2023/12/05 03:10:44;;;;;;;17.97;8.40;;;0.90;99.90;;;;;;5039781;28;20428;-77
2023/12/05 03:13:10;;;;;;;15.88;8.32;;;0.80;99.90;;;;;;5035919;28;20053;-77
2023/12/05 03:15:36;;;;;;;19.93;9.67;;;0.80;99.90;;;;;;5036032;28;20106;-75
2023/12/05 03:18:01;;;;;;;19.20;8.77;;;0.80;99.90;;;;;;5036018;28;20045;-74
2023/12/05 03:20:32;;;;;;;18.03;9.27;;;0.80;99.90;;;;;;5042781;28;20056;-74
2023/12/05 03:23:01;;;;;;;20.73;10.25;;;0.80;99.90;;;;;;5028536;28;20044;-74
2023/12/05 03:25:26;;;;;;;17.55;9.27;;;0.80;99.90;;;;;;5035866;28;20041;-74
2023/12/05 03:27:52;;;;;;;17.53;8.67;;;0.80;99.90;;;;;;5034598;28;20639;-75
2023/12/05 03:30:20;;;;;;;15.83;8.53;;;0.80;99.90;;;;;;5039640;28;20052;-74
2023/12/05 03:32:46;;;;;;;15.30;8.52;;;0.80;99.90;;;;;;5039083;28;20037;-75
2023/12/05 03:35:14;;;;;;;16.37;8.63;;;0.80;99.90;;;;;;5039110;28;20116;-74
2023/12/05 03:37:40;;;;;;;16.67;8.48;;;0.80;99.90;;;;;;5035731;28;20568;-75
2023/12/05 03:40:06;;;;;;;18.70;8.67;;;0.70;99.90;;;;;;5038988;28;20042;-74
2023/12/05 03:42:31;;;;;;;16.75;7.75;;;0.70;99.90;;;;;;5027023;28;20635;-74
2023/12/05 03:45:00;;;;;;;16.73;8.73;;;0.70;99.90;;;;;;5037935;28;20182;-74
2023/12/05 03:47:26;;;;;;;18.47;9.50;;;0.80;99.90;;;;;;5038261;28;20554;-75
2023/12/05 03:49:52;;;;;;;15.20;8.73;;;0.80;99.90;;;;;;5029536;28;20045;-74
2023/12/05 03:52:17;;;;;;;18.33;8.95;;;0.70;99.90;;;;;;5043079;28;20048;-74
2023/12/05 03:54:43;;;;;;;19.93;9.33;;;0.70;99.90;;;;;;5033514;28;20048;-74
2023/12/05 03:57:08;;;;;;;21.97;8.80;;;0.70;99.90;;;;;;5031520;28;20485;-74
2023/12/05 03:59:37;;;;;;;15.70;9.10;;;0.70;99.90;;;;;;5026082;28;20513;-74
2023/12/05 04:02:03;;;;;;;16.92;8.90;;;0.70;99.90;;;;;;5024479;28;21512;-74
2023/12/05 04:04:28;;;;;;;14.83;8.17;;;0.70;99.90;;;;;;5029615;28;20045;-74
2023/12/05 04:06:56;;;;;;;15.47;7.97;;;0.70;99.90;;;;;;5033459;28;20069;-74
2023/12/05 04:09:24;;;;;;;15.75;8.07;;;0.70;99.90;;;;;;5032166;28;20041;-74
2023/12/05 04:11:50;;;;;;;15.40;8.32;;;0.70;99.90;;;;;;5031267;28;20654;-74
2023/12/05 04:14:20;;;;;;;14.97;8.20;;;0.70;99.90;;;;;;5036595;28;20073;-74
2023/12/05 04:16:46;;;;;;;13.50;8.15;;;0.70;99.90;;;;;;5032505;28;20472;-74
2023/12/05 04:19:11;;;;;;;16.33;8.27;;;0.60;99.90;;;;;;5031741;28;20056;-74
2023/12/05 04:21:37;;;;;;;17.00;9.30;;;0.70;99.90;;;;;;5033769;28;20048;-74
2023/12/05 04:24:03;;;;;;;17.53;8.43;;;0.60;99.90;;;;;;5031205;28;20044;-74
2023/12/05 04:26:28;;;;;;;17.20;9.03;;;0.60;99.90;;;;;;5033388;28;20057;-74
2023/12/05 04:28:54;;;;;;;16.00;8.77;;;0.70;99.90;;;;;;5033149;28;20041;-74
2023/12/05 04:31:25;;;;;;;15.85;8.13;;;0.60;99.90;;;;;;5035284;28;20625;-75
2023/12/05 04:33:51;;;;;;;15.73;7.90;;;0.60;99.90;;;;;;5036771;28;20077;-75
2023/12/05 04:36:17;;;;;;;20.57;8.80;;;0.60;99.90;;;;;;5036395;28;20080;-74
2023/12/05 04:38:45;;;;;;;17.02;8.07;;;0.60;99.90;;;;;;5034950;28;20048;-74
2023/12/05 04:41:10;;;;;;;18.10;8.63;;;0.60;99.90;;;;;;5039677;28;20102;-74
2023/12/05 04:43:36;;;;;;;16.83;7.90;;;0.60;99.90;;;;;;5042071;28;20097;-74
2023/12/05 04:46:02;;;;;;;17.23;9.07;;;0.60;99.90;;;;;;5022310;28;20050;-74
2023/12/05 04:48:30;;;;;;;16.60;9.17;;;0.60;99.90;;;;;;5040563;28;20540;-74
2023/12/05 04:50:58;;;;;;;16.80;8.77;;;0.60;99.90;;;;;;5037856;28;20115;-74
2023/12/05 04:53:29;;;;;;;17.00;8.68;;;0.60;99.90;;;;;;5042591;28;20037;-73
2023/12/05 04:55:55;;;;;;;18.23;9.15;;;0.60;99.90;;;;;;5041391;28;20460;-73
2023/12/05 04:58:21;;;;;;;19.43;8.50;;;0.60;99.90;;;;;;5033808;28;20045;-74
2023/12/05 05:00:46;;;;;;;20.17;8.77;;;0.60;99.90;;;;;;5022164;28;20499;-74
2023/12/05 05:03:18;;;;;;;17.45;8.80;;;0.60;99.90;;;;;;5033548;28;20704;-74
2023/12/05 05:05:44;;;;;;;17.47;8.60;;;0.60;99.90;;;;;;5037146;28;20040;-74
2023/12/05 05:08:09;;;;;;;17.63;9.07;;;0.60;99.90;;;;;;5040939;28;20044;-74
2023/12/05 05:10:35;;;;;;;19.97;10.73;;;0.60;99.90;;;;;;5042212;28;20130;-74
2023/12/05 05:13:00;;;;;;;18.87;10.00;;;0.60;99.90;;;;;;5037775;28;20042;-74
2023/12/05 05:15:26;;;;;;;17.50;9.43;;;0.60;99.90;;;;;;5037496;28;20033;-74
2023/12/05 05:17:52;;;;;;;15.50;9.10;;;0.60;99.90;;;;;;5040925;28;20099;-74
2023/12/05 05:20:17;;;;;;;19.50;10.10;;;0.60;99.90;;;;;;5036145;28;20076;-74
2023/12/05 05:22:46;;;;;;;18.38;9.05;;;0.60;99.90;;;;;;5037384;28;20037;-74
2023/12/05 05:25:12;;;;;;;16.75;9.02;;;0.60;99.90;;;;;;5039436;28;20159;-74
2023/12/05 05:27:38;;;;;;;16.15;9.77;;;0.60;99.90;;;;;;5039890;28;20128;-74
2023/12/05 05:30:07;;;;;;;17.50;9.60;;;0.60;99.90;;;;;;5037949;28;20041;-74
2023/12/05 05:32:32;;;;;;;20.73;9.73;;;0.60;99.90;;;;;;5041935;28;20043;-74
2023/12/05 05:34:58;;;;;;;20.03;10.10;;;0.60;99.90;;;;;;5033066;28;20429;-74
2023/12/05 05:37:23;;;;;;;17.63;9.43;;;0.60;99.90;;;;;;5035966;28;20044;-74
2023/12/05 05:39:53;;;;;;;20.03;9.93;;;0.60;99.90;;;;;;5035405;28;20042;-74
2023/12/05 05:42:19;;;;;;;19.55;10.05;;;0.60;99.90;;;;;;5041714;28;20179;-74
2023/12/05 05:44:45;;;;;;;17.55;9.52;;;0.60;99.90;;;;;;5042975;28;20045;-73
2023/12/05 05:47:11;;;;;;;19.43;10.07;;;0.50;99.90;;;;;;5040543;28;20037;-73
2023/12/05 05:49:37;;;;;;;19.08;9.82;;;0.60;99.90;;;;;;5039225;28;20572;-73
2023/12/05 05:52:03;;;;;;;17.88;9.60;;;0.60;99.90;;;;;;5041097;28;20430;-73
2023/12/05 05:54:35;;;;;;;17.90;9.40;;;0.60;99.90;;;;;;5035916;28;20083;-73
2023/12/05 05:57:03;;;;;;;21.17;9.68;;;0.60;99.90;;;;;;5045653;28;20386;-73
2023/12/05 05:59:32;;;;;;;20.17;9.57;;;0.60;99.90;;;;;;5027544;28;20069;-73
2023/12/05 06:01:57;;;;;;;19.05;9.30;;;0.60;99.90;;;;;;5038884;28;20520;-73
2023/12/05 06:04:26;;;;;;;19.23;9.73;;;0.60;99.90;;;;;;5043096;28;20056;-73
2023/12/05 06:06:51;;;;;;;20.15;9.82;;;0.60;99.90;;;;;;5041767;28;20104;-73
2023/12/05 06:09:17;;;;;;;18.73;9.80;;;0.60;99.90;;;;;;5038570;28;20425;-74
2023/12/05 06:11:43;;;;;;;18.63;9.27;;;0.60;99.90;;;;;;5039999;28;20055;-74
2023/12/05 06:14:08;;;;;;;18.60;9.10;;;0.60;99.90;;;;;;5023892;28;20052;-74
2023/12/05 06:16:34;;;;;;;18.20;9.37;;;0.60;99.90;;;;;;5044076;28;20504;-73
2023/12/05 06:19:00;;;;;;;19.93;10.30;;;0.60;99.90;;;;;;5041429;28;20044;-73
2023/12/05 06:21:28;;;;;;;22.67;10.43;;;0.60;99.90;;;;;;5032171;28;20048;-73
2023/12/05 06:23:55;;;;;;;18.58;9.55;;;0.60;99.90;;;;;;5041108;28;20075;-73
2023/12/05 06:26:20;;;;;;;18.30;9.60;;;0.60;99.90;;;;;;5022003;28;20556;-73
2023/12/05 06:28:49;;;;;;;18.33;8.93;;;0.60;99.90;;;;;;5045039;28;20037;-73
2023/12/05 06:31:15;;;;;;;20.20;9.52;;;0.60;99.90;;;;;;5040154;28;20063;-73
2023/12/05 06:33:42;;;;;;;19.38;9.27;;;0.70;99.90;;;;;;5041143;28;20523;-73
2023/12/05 06:36:08;;;;;;;19.98;9.38;;;0.60;99.90;;;;;;5039083;28;20548;-74
2023/12/05 06:38:34;;;;;;;16.27;9.33;;;0.60;99.90;;;;;;5039659;28;20040;-77
2023/12/05 06:40:59;;;;;;;21.97;10.07;;;0.60;99.90;;;;;;5035244;28;20294;-75
2023/12/05 06:43:25;;;;;;;17.83;9.13;;;0.70;99.90;;;;;;5043650;28;20544;-75
2023/12/05 06:45:51;;;;;;;20.37;9.60;;;0.60;99.90;;;;;;5045667;28;20080;-75
2023/12/05 06:48:16;;;;;;;20.95;10.35;;;0.60;99.90;;;;;;5040975;28;20497;-75
2023/12/05 06:50:45;;;;;;;18.50;9.50;;;0.70;99.90;;;;;;5044967;28;20515;-73
2023/12/05 06:53:11;;;;;;;20.48;10.27;;;0.70;99.90;;;;;;5043255;28;20401;-74
2023/12/05 06:55:42;;;;;;;21.27;10.93;;;0.60;99.90;;;;;;5039996;28;20045;-75
2023/12/05 06:58:08;;;;;;;19.95;10.57;;;0.60;99.90;;;;;;5042227;28;20063;-73
2023/12/05 07:00:34;;;;;;;18.83;9.70;;;0.60;99.90;;;;;;5031320;28;20041;-79
2023/12/05 07:03:00;;;;;;;20.83;9.30;;;0.60;99.90;;;;;;5039340;28;20041;-77
2023/12/05 07:05:25;;;;;;;19.97;9.20;;;0.60;99.90;;;;;;5040635;28;20082;-72
2023/12/05 07:07:51;;;;;;;20.30;10.17;;;0.60;99.90;;;;;;5036377;28;20041;-73
2023/12/05 07:10:16;;;;;;;19.70;9.77;;;0.60;99.90;;;;;;5039023;28;20037;-73
2023/12/05 07:12:43;;;;;;;18.97;10.30;;;0.60;99.90;;;;;;5045204;28;20033;-73
2023/12/05 07:15:09;;;;;;;23.50;10.95;;;0.70;99.90;;;;;;5040717;28;20053;-73
2023/12/05 07:17:34;;;;;;;18.90;9.73;;;0.70;99.90;;;;;;5031827;28;20485;-73
2023/12/05 07:20:07;;;;;;;20.63;9.80;;;0.70;99.90;;;;;;5116193;27;20415;-71
2023/12/05 07:22:35;;;;;;;22.27;10.00;;;0.60;99.90;;;;;;5079773;28;20037;-72
2023/12/05 07:25:01;;;;;;;19.73;9.53;;;0.70;99.90;;;;;;5092277;28;20521;-73
2023/12/05 07:27:27;;;;;;;20.70;9.70;;;0.60;99.90;;;;;;5096364;28;20034;-72
2023/12/05 07:29:53;;;;;;;21.17;9.53;;;0.60;99.90;;;;;;5104067;28;20056;-74
2023/12/05 07:32:19;;;;;;;18.23;9.40;;;0.60;99.90;;;;;;5106285;27;20337;-72
2023/12/05 07:34:45;;;;;;;18.95;9.77;;;0.60;99.90;;;;;;5092674;28;20044;-73
2023/12/05 07:37:11;;;;;;;27.37;11.43;;;0.60;99.90;;;;;;5096377;28;20055;-74
2023/12/05 07:39:36;;;;;;;20.53;9.37;;;0.60;99.90;;;;;;5097104;28;20284;-72
2023/12/05 07:42:02;;;;;;;19.80;10.23;;;0.60;99.90;;;;;;5092779;28;20311;-72
2023/12/05 07:44:28;;;;;;;24.23;11.73;;;0.60;99.90;;;;;;5077523;28;20051;-84
2023/12/05 07:46:54;;;;;;;22.07;10.33;;;0.60;99.90;;;;;;5103865;28;20036;-73
2023/12/05 07:49:23;;;;;;;19.40;9.77;;;0.60;99.90;;;;;;5096906;28;20083;-72
2023/12/05 07:51:49;;;;;;;21.58;9.80;;;0.60;99.90;;;;;;5079888;28;20042;-73
2023/12/05 07:54:14;;;;;;;22.75;10.63;;;0.60;99.90;;;;;;5101164;28;20039;-76
2023/12/05 07:56:40;;;;;;;23.00;10.67;;;0.60;99.90;;;;;;5099783;28;20309;-74
2023/12/05 07:59:08;;;;;;;21.47;10.00;;;0.70;99.90;;;;;;5084324;28;20554;-74
2023/12/05 08:01:34;;;;;;;23.58;10.65;;;0.60;99.90;;;;;;5096443;28;20456;-77
2023/12/05 08:04:02;;;;;;;19.57;9.73;;;0.70;99.90;;;;;;5093651;28;20242;-72
2023/12/05 08:06:27;;;;;;;20.75;10.30;;;0.60;99.90;;;;;;5104018;28;20263;-72
2023/12/05 08:08:53;;;;;;;22.70;10.60;;;0.70;99.90;;;;;;5099254;28;20035;-72
2023/12/05 08:11:20;;;;;;;22.43;10.53;;;0.70;99.90;;;;;;5097611;28;20044;-72
2023/12/05 08:13:47;;;;;;;22.20;10.55;;;0.70;99.90;;;;;;5096112;28;20106;-72
2023/12/05 08:16:13;;;;;;;20.38;9.45;;;0.70;99.90;;;;;;5098179;28;20123;-72
2023/12/05 08:18:39;;;;;;;23.52;10.52;;;0.70;99.90;;;;;;5096132;28;20051;-73
2023/12/05 08:21:05;;;;;;;24.63;11.07;;;0.70;99.90;;;;;;5098544;28;20028;-72
2023/12/05 08:23:31;;;;;;;24.85;11.60;;;0.70;99.90;;;;;;5100496;28;20035;-72
2023/12/05 08:25:56;;;;;;;22.90;10.20;;;0.70;99.90;;;;;;5097994;28;20081;-72
2023/12/05 08:28:22;;;;;;;20.77;9.93;;;0.70;99.90;;;;;;5098691;28;20496;-72
2023/12/05 08:30:48;;;;;;;17.77;9.33;;;0.70;99.90;;;;;;5080926;28;20040;-72
2023/12/05 08:33:14;;;;;;;24.87;10.83;;;0.70;99.90;;;;;;5064142;28;20074;-72
2023/12/05 08:35:40;;;;;;;16.63;9.45;;;0.70;99.90;;;;;;5086822;28;20274;-72
2023/12/05 08:38:06;;;;;;;20.57;10.63;;;0.80;99.90;;;;;;5085174;28;20040;-72
2023/12/05 08:40:32;;;;;;;24.30;11.20;;;0.70;99.90;;;;;;5085345;28;20074;-72
2023/12/05 08:42:57;;;;;;;22.03;11.23;;;0.80;99.90;;;;;;5087124;28;20563;-74
2023/12/05 08:45:24;;;;;;;23.80;11.50;;;0.70;99.90;;;;;;5093363;28;20068;-72
2023/12/05 08:47:54;;;;;;;22.48;10.77;;;0.80;99.90;;;;;;5082861;28;20042;-72
2023/12/05 08:50:20;;;;;;;22.13;10.18;;;0.80;99.90;;;;;;5078351;28;20043;-72
2023/12/05 08:52:46;;;;;;;21.55;10.65;;;0.70;99.90;;;;;;5069779;28;20360;-72
2023/12/05 08:55:12;;;;;;;24.02;10.75;;;0.80;99.90;;;;;;5088761;28;20302;-72
2023/12/05 08:57:38;;;;;;;22.80;11.48;;;0.80;99.90;;;;;;5087779;28;20036;-72
2023/12/05 09:00:04;;;;;;;23.43;10.90;;;0.80;99.90;;;;;;5085606;28;20405;-72
2023/12/05 09:02:30;;;;;;;19.27;9.75;;;0.80;99.90;;;;;;5067646;28;20036;-72
2023/12/05 09:04:56;;;;;;;21.77;10.30;;;0.80;99.90;;;;;;5084925;28;20052;-72
2023/12/05 09:07:22;;;;;;;23.77;11.50;;;0.80;99.90;;;;;;5076795;28;20050;-72
2023/12/05 09:09:48;;;;;;;20.75;10.15;;;0.80;99.90;;;;;;5087173;28;20039;-72
2023/12/05 09:12:14;;;;;;;20.07;10.47;;;0.90;99.90;;;;;;5089520;28;20041;-72
2023/12/05 09:14:40;;;;;;;23.27;10.82;;;0.90;99.90;;;;;;5078390;28;20096;-72
2023/12/05 09:17:09;;;;;;;21.03;11.10;;;0.90;99.90;;;;;;5090320;28;20047;-72
2023/12/05 09:19:35;;;;;;;25.67;10.85;;;0.90;99.90;;;;;;5084118;28;20508;-72
2023/12/05 09:22:00;;;;;;;21.98;10.23;;;0.90;99.90;;;;;;5085112;28;20046;-72
2023/12/05 09:24:26;;;;;;;28.93;10.47;;;0.90;99.90;;;;;;5087034;28;20039;-72
2023/12/05 09:26:52;;;;;;;23.87;10.40;;;0.90;99.90;;;;;;5086787;28;20089;-72
2023/12/05 09:29:18;;;;;;;21.75;10.43;;;0.90;99.90;;;;;;5088274;28;20117;-72
2023/12/05 09:31:43;;;;;;;22.13;10.82;;;0.90;99.90;;;;;;5086957;28;20052;-72
2023/12/05 09:34:09;;;;;;;26.27;11.37;;;0.90;99.90;;;;;;5084568;28;20462;-72
2023/12/05 09:36:35;;;;;;;22.93;11.10;;;1.00;99.90;;;;;;5081534;28;20128;-73
2023/12/05 09:39:00;;;;;;;21.93;10.87;;;1.00;99.90;;;;;;5086930;28;20703;-72
2023/12/05 09:41:27;;;;;;;24.67;11.32;;;1.00;99.90;;;;;;5085640;28;20036;-72
2023/12/05 09:43:53;;;;;;;23.60;10.98;;;1.00;99.90;;;;;;5091196;28;20065;-72
2023/12/05 09:46:25;;;;;;;21.10;10.23;;;1.10;99.90;;;;;;5087846;28;20449;-72
2023/12/05 09:48:55;;;;;;;24.10;10.93;;;1.10;99.90;;;;;;5069604;28;20062;-72
2023/12/05 09:51:22;;;;;;;21.92;10.77;;;1.00;99.90;;;;;;5071836;28;20039;-72
2023/12/05 09:53:48;;;;;;;23.52;11.45;;;1.00;99.90;;;;;;5084584;28;20156;-71
2023/12/05 09:56:14;;;;;;;22.88;11.63;;;1.00;99.90;;;;;;5095286;28;20443;-71
2023/12/05 09:58:46;;;;;;;23.10;11.80;;;1.00;99.90;;;;;;5090194;28;20055;-72
2023/12/05 10:01:19;;;;;;;32.53;14.07;;;1.00;99.90;;;;;;5063739;28;20029;-71
2023/12/05 10:03:53;;;;;;;35.63;14.20;;;1.00;99.90;;;;;;5070585;28;20070;-71
2023/12/05 10:06:20;;;;;;;24.70;13.18;;;1.10;99.90;;;;;;5082850;28;20036;-72
2023/12/05 10:08:50;;;;;;;21.20;11.85;;;1.00;99.90;;;;;;5085173;28;20044;-72
2023/12/05 10:11:17;;;;;;;26.00;12.05;;;1.10;99.90;;;;;;5094666;28;20044;-72
2023/12/05 10:13:44;;;;;;;23.75;12.02;;;1.10;99.90;;;;;;5095940;28;20411;-72
2023/12/05 10:16:10;;;;;;;24.92;12.60;;;1.10;99.90;;;;;;5062094;28;20028;-72
2023/12/05 10:18:37;;;;;;;24.92;11.05;;;1.10;99.90;;;;;;5086802;28;20119;-72
2023/12/05 10:21:03;;;;;;;23.60;10.93;;;1.10;99.90;;;;;;5087561;28;20043;-72
2023/12/05 10:23:29;;;;;;;28.33;11.77;;;1.10;99.90;;;;;;5086504;28;20036;-72
2023/12/05 10:25:54;;;;;;;19.53;10.93;;;1.10;99.90;;;;;;5089307;28;20058;-72
2023/12/05 10:28:20;;;;;;;23.13;10.63;;;1.10;99.90;;;;;;5086572;28;20032;-72
2023/12/05 10:30:45;;;;;;;23.80;11.10;;;1.20;99.90;;;;;;5085349;28;20041;-72
2023/12/05 10:33:16;;;;;;;16.53;9.43;;;1.10;99.90;;;;;;5093469;28;20115;-72
2023/12/05 10:35:43;;;;;;;23.65;10.85;;;1.10;99.90;;;;;;5063744;28;20135;-72
2023/12/05 10:38:12;;;;;;;20.67;10.23;;;1.10;99.90;;;;;;5086169;28;20144;-72
2023/12/05 10:40:57;;;;;;;22.63;11.13;;;1.10;99.90;;;;;;5088139;28;20032;-71
2023/12/05 10:43:25;;;;;;;23.50;10.68;;;1.10;99.90;;;;;;5078227;28;20059;-70
2023/12/05 10:45:51;;;;;;;26.38;11.38;;;1.10;99.90;;;;;;5084325;28;20059;-71
2023/12/05 10:48:17;;;;;;;26.98;11.93;;;1.10;99.90;;;;;;5084958;28;20043;-71
2023/12/05 10:50:45;;;;;;;23.65;11.38;;;1.10;99.90;;;;;;5068509;28;20055;-71
2023/12/05 10:53:11;;;;;;;23.27;10.38;;;1.10;99.90;;;;;;5096958;28;20372;-71
2023/12/05 10:55:36;;;;;;;20.23;10.80;;;1.10;99.90;;;;;;5080434;28;20035;-71
2023/12/05 10:58:02;;;;;;;20.90;10.30;;;1.10;99.90;;;;;;5087639;28;20035;-71
2023/12/05 11:00:29;;;;;;;33.70;14.45;;;1.10;99.90;;;;;;5084438;28;20036;-71
2023/12/05 11:02:55;;;;;;;;;;;1.10;99.90;;;;;;5080456;28;20040;-71
2023/12/05 11:05:24;;;;;;;25.25;11.15;;;1.10;99.90;;;;;;5078854;28;20314;-71
2023/12/05 11:07:51;;;;;;;20.88;10.68;;;1.10;99.90;;;;;;5092598;28;20039;-71
2023/12/05 11:10:17;;;;;;;;;;;1.10;99.90;;;;;;5069277;28;20392;-71
2023/12/05 11:12:49;;;;;;;21.55;11.13;;;1.10;99.90;;;;;;5076674;28;20181;-71
2023/12/05 11:15:18;;;;;;;31.98;12.38;;;1.10;99.90;;;;;;5087613;28;20043;-71
2023/12/05 11:17:59;;;;;;;23.52;12.07;;;1.10;99.90;;;;;;5083111;28;20032;-71
2023/12/05 11:20:43;;;;;;;26.55;12.57;;;1.10;99.90;;;;;;5088436;28;20060;-71
2023/12/05 11:23:27;;;;;;;21.33;10.90;;;1.00;99.90;;;;;;5076516;28;20042;-71
2023/12/05 11:26:05;;;;;;;26.70;10.85;;;1.10;99.90;;;;;;5080503;28;20473;-71
2023/12/05 11:29:12;;;;;;;29.42;11.98;;;1.10;99.90;;;;;;5093949;28;20089;-71
2023/12/05 11:31:46;;;;;;;26.33;11.70;;;1.10;99.90;;;;;;5088618;28;20135;-71
2023/12/05 11:34:37;;;;;;;22.08;11.77;;;1.00;99.90;;;;;;5089580;28;20082;-71
2023/12/05 11:37:22;;;;;;;27.77;12.27;;;1.00;99.90;;;;;;5074068;28;20403;-71
2023/12/05 11:39:49;;;;;;;28.42;13.05;;;1.00;99.90;;;;;;5083618;28;20048;-71
2023/12/05 11:42:15;;;;;;;29.92;12.40;;;1.00;99.90;;;;;;5087467;28;20421;-71
2023/12/05 11:44:42;;;;;;;24.53;11.93;;;1.00;99.90;;;;;;5093524;28;20031;-71
2023/12/05 11:47:32;;;;;;;30.52;12.93;;;1.00;99.90;;;;;;5073940;28;20032;-71
2023/12/05 11:50:00;;;;;;;24.42;12.45;;;1.10;99.90;;;;;;5064495;28;20047;-71
2023/12/05 11:52:39;;;;;;;26.95;12.55;;;1.10;99.90;;;;;;5084420;28;20511;-71
2023/12/05 11:55:05;;;;;;;24.23;12.27;;;1.10;99.90;;;;;;5087499;28;20044;-71
2023/12/05 11:57:33;;;;;;;29.77;13.93;;;1.00;99.90;;;;;;5076320;28;20028;-70
2023/12/05 11:59:59;;;;;;;26.15;12.30;;;1.00;99.90;;;;;;5076439;28;20055;-71
2023/12/05 12:02:31;;;;;;;25.30;12.30;;;1.00;99.90;;;;;;5086531;28;20031;-71
2023/12/05 12:05:05;;;;;;;28.38;13.48;;;1.00;99.90;;;;;;5067545;28;20126;-71
2023/12/05 12:07:32;;;;;;;26.50;12.25;;;1.00;99.90;;;;;;5080603;28;20068;-71
2023/12/05 12:09:59;;;;;;;27.20;12.00;;;1.10;99.90;;;;;;5089625;28;20093;-71
2023/12/05 12:12:24;;;;;;;23.20;11.57;;;1.00;99.90;;;;;;5088974;28;20043;-71
2023/12/05 12:14:50;;;;;;;25.13;11.90;;;1.10;99.90;;;;;;5070015;28;20055;-71
2023/12/05 12:17:19;;;;;;;28.87;12.77;;;1.00;99.90;;;;;;5086828;28;20068;-71
2023/12/05 12:19:44;;;;;;;29.25;12.68;;;1.00;99.90;;;;;;5081352;28;20568;-71
2023/12/05 12:22:14;;;;;;;27.43;11.63;;;1.00;99.90;;;;;;5081172;28;20118;-71
2023/12/05 12:24:40;;;;;;;23.90;11.20;;;1.00;99.90;;;;;;5077311;28;20089;-71
2023/12/05 12:27:07;;;;;;;26.95;12.73;;;1.00;99.90;;;;;;5088835;28;20028;-71
2023/12/05 12:29:33;;;;;;;26.55;11.27;;;1.10;99.90;;;;;;5065773;28;20043;-71
2023/12/05 12:32:12;;;;;;;30.08;13.05;;;1.10;99.90;;;;;;5079465;28;20116;-71
2023/12/05 12:34:42;;;;;;;26.73;11.75;;;1.10;99.90;;;;;;5067473;28;20135;-71
2023/12/05 12:37:11;;;;;;;28.00;12.45;;;1.10;99.90;;;;;;5080547;28;20407;-71
2023/12/05 12:39:39;;;;;;;29.88;12.20;;;1.10;99.90;;;;;;5079639;28;20064;-71
2023/12/05 12:42:06;;;;;;;27.35;12.73;;;1.20;99.90;;;;;;5086510;28;20542;-71
2023/12/05 12:44:32;;;;;;;;;;;1.10;99.90;;;;;;5074455;28;20408;-71